sensor_id;sensor_type;location;lat;lon;timestamp;P1;durP1;ratioP1;P2;durP2;ratioP2
14768;SDS011;7476;49.404;11.152;2023-12-20T00:01:09;7.50;;;5.90;;
14768;SDS011;7476;49.404;11.152;2023-12-20T00:03:36;7.03;;;5.63;;
14768;SDS011;7476;49.404;11.152;2023-12-20T00:06:03;7.87;;;5.53;;
14768;SDS011;7476;49.404;11.152;2023-12-20T00:08:29;7.60;;;5.60;;
14768;SDS011;7476;49.404;11.152;2023-12-20T00:10:56;10.00;;;5.90;;
14768;SDS011;7476;49.404;11.152;2023-12-20T00:13:24;9.63;;;6.03;;
14768;SDS011;7476;49.404;11.152;2023-12-20T00:15:50;8.27;;;5.77;;
14768;SDS011;7476;49.404;11.152;2023-12-20T00:18:16;7.60;;;5.93;;
14768;SDS011;7476;49.404;11.152;2023-12-20T00:20:43;7.63;;;5.93;;
14768;SDS011;7476;49.404;11.152;2023-12-20T00:23:10;7.70;;;6.20;;
14768;SDS011;7476;49.404;11.152;2023-12-20T00:25:37;8.97;;;6.13;;
14768;SDS011;7476;49.404;11.152;2023-12-20T00:28:03;8.03;;;6.03;;
14768;SDS011;7476;49.404;11.152;2023-12-20T00:30:31;7.80;;;5.97;;
14768;SDS011;7476;49.404;11.152;2023-12-20T00:32:58;7.00;;;5.53;;
14768;SDS011;7476;49.404;11.152;2023-12-20T00:35:25;10.90;;;6.20;;
14768;SDS011;7476;49.404;11.152;2023-12-20T00:37:51;8.03;;;5.63;;
14768;SDS011;7476;49.404;11.152;2023-12-20T00:40:18;8.77;;;5.87;;
14768;SDS011;7476;49.404;11.152;2023-12-20T00:42:45;7.77;;;6.00;;
14768;SDS011;7476;49.404;11.152;2023-12-20T00:45:12;8.20;;;5.53;;
14768;SDS011;7476;49.404;11.152;2023-12-20T00:47:40;9.33;;;5.80;;
14768;SDS011;7476;49.404;11.152;2023-12-20T00:50:07;6.20;;;5.60;;
14768;SDS011;7476;49.404;11.152;2023-12-20T00:52:35;8.13;;;5.20;;
14768;SDS011;7476;49.404;11.152;2023-12-20T00:55:01;8.07;;;5.07;;
14768;SDS011;7476;49.404;11.152;2023-12-20T00:57:28;9.93;;;5.43;;
14768;SDS011;7476;49.404;11.152;2023-12-20T00:59:56;9.30;;;5.20;;
14768;SDS011;7476;49.404;11.152;2023-12-20T01:02:22;7.50;;;5.30;;
14768;SDS011;7476;49.404;11.152;2023-12-20T01:04:50;7.03;;;5.17;;
14768;SDS011;7476;49.404;11.152;2023-12-20T01:07:17;7.27;;;5.40;;
14768;SDS011;7476;49.404;11.152;2023-12-20T01:09:44;7.23;;;5.10;;
14768;SDS011;7476;49.404;11.152;2023-12-20T01:12:10;7.70;;;5.30;;
14768;SDS011;7476;49.404;11.152;2023-12-20T01:14:37;5.43;;;4.60;;
14768;SDS011;7476;49.404;11.152;2023-12-20T01:17:04;6.13;;;4.97;;
14768;SDS011;7476;49.404;11.152;2023-12-20T01:19:31;7.07;;;5.50;;
14768;SDS011;7476;49.404;11.152;2023-12-20T01:21:59;5.60;;;4.97;;
14768;SDS011;7476;49.404;11.152;2023-12-20T01:24:25;6.37;;;5.23;;
14768;SDS011;7476;49.404;11.152;2023-12-20T01:26:52;6.00;;;5.23;;
14768;SDS011;7476;49.404;11.152;2023-12-20T01:29:18;4.80;;;4.13;;
14768;SDS011;7476;49.404;11.152;2023-12-20T01:31:45;7.10;;;4.70;;
14768;SDS011;7476;49.404;11.152;2023-12-20T01:34:12;6.93;;;4.47;;
14768;SDS011;7476;49.404;11.152;2023-12-20T01:36:38;6.30;;;4.90;;
14768;SDS011;7476;49.404;11.152;2023-12-20T01:39:06;7.00;;;4.13;;
14768;SDS011;7476;49.404;11.152;2023-12-20T01:41:33;7.00;;;3.70;;
14768;SDS011;7476;49.404;11.152;2023-12-20T01:43:59;5.30;;;3.73;;
14768;SDS011;7476;49.404;11.152;2023-12-20T01:46:26;6.50;;;3.83;;
14768;SDS011;7476;49.404;11.152;2023-12-20T01:48:53;4.73;;;3.60;;
14768;SDS011;7476;49.404;11.152;2023-12-20T01:51:19;3.50;;;3.20;;
14768;SDS011;7476;49.404;11.152;2023-12-20T01:53:47;4.93;;;3.40;;
14768;SDS011;7476;49.404;11.152;2023-12-20T01:56:16;3.57;;;2.90;;
14768;SDS011;7476;49.404;11.152;2023-12-20T01:58:44;3.17;;;2.87;;
14768;SDS011;7476;49.404;11.152;2023-12-20T02:01:12;4.10;;;2.80;;
14768;SDS011;7476;49.404;11.152;2023-12-20T02:03:39;2.93;;;2.63;;
14768;SDS011;7476;49.404;11.152;2023-12-20T02:06:07;2.67;;;2.47;;
14768;SDS011;7476;49.404;11.152;2023-12-20T02:08:34;2.53;;;2.20;;
14768;SDS011;7476;49.404;11.152;2023-12-20T02:11:00;2.60;;;2.40;;
14768;SDS011;7476;49.404;11.152;2023-12-20T02:13:29;2.43;;;1.90;;
14768;SDS011;7476;49.404;11.152;2023-12-20T02:15:56;3.03;;;2.27;;
14768;SDS011;7476;49.404;11.152;2023-12-20T02:18:23;1.97;;;1.77;;
14768;SDS011;7476;49.404;11.152;2023-12-20T02:20:50;2.10;;;1.70;;
14768;SDS011;7476;49.404;11.152;2023-12-20T02:23:18;2.20;;;2.00;;
14768;SDS011;7476;49.404;11.152;2023-12-20T02:25:44;2.07;;;1.87;;
14768;SDS011;7476;49.404;11.152;2023-12-20T02:28:11;1.97;;;1.77;;
14768;SDS011;7476;49.404;11.152;2023-12-20T02:30:38;1.97;;;1.70;;
14768;SDS011;7476;49.404;11.152;2023-12-20T02:33:05;2.40;;;1.60;;
14768;SDS011;7476;49.404;11.152;2023-12-20T02:35:36;1.97;;;1.77;;
14768;SDS011;7476;49.404;11.152;2023-12-20T02:38:03;1.80;;;1.70;;
14768;SDS011;7476;49.404;11.152;2023-12-20T02:40:31;1.70;;;1.60;;
14768;SDS011;7476;49.404;11.152;2023-12-20T02:42:58;1.70;;;1.60;;
14768;SDS011;7476;49.404;11.152;2023-12-20T02:45:24;1.60;;;1.50;;
14768;SDS011;7476;49.404;11.152;2023-12-20T02:47:52;1.50;;;1.40;;
14768;SDS011;7476;49.404;11.152;2023-12-20T02:50:19;1.30;;;1.20;;
14768;SDS011;7476;49.404;11.152;2023-12-20T02:52:45;1.50;;;1.40;;
14768;SDS011;7476;49.404;11.152;2023-12-20T02:55:12;1.40;;;1.30;;
14768;SDS011;7476;49.404;11.152;2023-12-20T02:57:40;2.33;;;1.50;;
14768;SDS011;7476;49.404;11.152;2023-12-20T03:00:07;1.47;;;1.37;;
14768;SDS011;7476;49.404;11.152;2023-12-20T03:02:35;1.43;;;1.33;;
14768;SDS011;7476;49.404;11.152;2023-12-20T03:05:02;1.80;;;1.10;;
14768;SDS011;7476;49.404;11.152;2023-12-20T03:07:29;1.40;;;1.30;;
14768;SDS011;7476;49.404;11.152;2023-12-20T03:09:56;1.37;;;1.27;;
14768;SDS011;7476;49.404;11.152;2023-12-20T03:12:22;1.37;;;1.27;;
14768;SDS011;7476;49.404;11.152;2023-12-20T03:14:50;1.30;;;1.20;;
14768;SDS011;7476;49.404;11.152;2023-12-20T03:17:17;1.50;;;1.30;;
14768;SDS011;7476;49.404;11.152;2023-12-20T03:19:43;1.40;;;1.20;;
14768;SDS011;7476;49.404;11.152;2023-12-20T03:22:10;1.60;;;1.50;;
14768;SDS011;7476;49.404;11.152;2023-12-20T03:24:37;1.60;;;1.00;;
14768;SDS011;7476;49.404;11.152;2023-12-20T03:27:03;1.17;;;1.07;;
14768;SDS011;7476;49.404;11.152;2023-12-20T03:29:30;2.40;;;1.37;;
14768;SDS011;7476;49.404;11.152;2023-12-20T03:31:58;2.40;;;1.20;;
14768;SDS011;7476;49.404;11.152;2023-12-20T03:34:25;1.20;;;1.10;;
14768;SDS011;7476;49.404;11.152;2023-12-20T03:36:54;1.90;;;1.43;;
14768;SDS011;7476;49.404;11.152;2023-12-20T03:39:20;1.70;;;1.30;;
14768;SDS011;7476;49.404;11.152;2023-12-20T03:41:47;1.20;;;1.10;;
14768;SDS011;7476;49.404;11.152;2023-12-20T03:44:14;1.40;;;1.30;;
14768;SDS011;7476;49.404;11.152;2023-12-20T03:46:40;1.47;;;1.37;;
14768;SDS011;7476;49.404;11.152;2023-12-20T03:49:08;2.60;;;1.20;;
14768;SDS011;7476;49.404;11.152;2023-12-20T03:51:35;1.50;;;1.40;;
14768;SDS011;7476;49.404;11.152;2023-12-20T03:54:02;1.40;;;1.30;;
14768;SDS011;7476;49.404;11.152;2023-12-20T03:56:28;1.53;;;1.43;;
14768;SDS011;7476;49.404;11.152;2023-12-20T03:58:55;1.60;;;1.50;;
14768;SDS011;7476;49.404;11.152;2023-12-20T04:01:22;2.90;;;1.57;;
14768;SDS011;7476;49.404;11.152;2023-12-20T04:03:48;1.30;;;1.20;;
14768;SDS011;7476;49.404;11.152;2023-12-20T04:06:17;1.70;;;1.60;;
14768;SDS011;7476;49.404;11.152;2023-12-20T04:08:44;1.50;;;1.40;;
14768;SDS011;7476;49.404;11.152;2023-12-20T04:11:10;1.80;;;1.70;;
14768;SDS011;7476;49.404;11.152;2023-12-20T04:13:37;1.87;;;1.67;;
14768;SDS011;7476;49.404;11.152;2023-12-20T04:16:04;1.70;;;1.60;;
14768;SDS011;7476;49.404;11.152;2023-12-20T04:18:31;2.03;;;1.83;;
14768;SDS011;7476;49.404;11.152;2023-12-20T04:20:57;2.10;;;1.83;;
14768;SDS011;7476;49.404;11.152;2023-12-20T04:23:25;2.13;;;1.80;;
14768;SDS011;7476;49.404;11.152;2023-12-20T04:25:53;1.70;;;1.60;;
14768;SDS011;7476;49.404;11.152;2023-12-20T04:28:20;1.73;;;1.63;;
14768;SDS011;7476;49.404;11.152;2023-12-20T04:30:47;3.23;;;2.00;;
14768;SDS011;7476;49.404;11.152;2023-12-20T04:33:13;2.30;;;2.10;;
14768;SDS011;7476;49.404;11.152;2023-12-20T04:35:40;2.27;;;2.07;;
14768;SDS011;7476;49.404;11.152;2023-12-20T04:38:07;2.30;;;2.10;;
14768;SDS011;7476;49.404;11.152;2023-12-20T04:40:35;2.30;;;2.10;;
14768;SDS011;7476;49.404;11.152;2023-12-20T04:43:02;2.30;;;2.10;;
14768;SDS011;7476;49.404;11.152;2023-12-20T04:45:29;2.33;;;2.13;;
14768;SDS011;7476;49.404;11.152;2023-12-20T04:47:56;2.90;;;2.30;;
14768;SDS011;7476;49.404;11.152;2023-12-20T04:50:22;2.30;;;2.10;;
14768;SDS011;7476;49.404;11.152;2023-12-20T04:52:49;2.67;;;2.47;;
14768;SDS011;7476;49.404;11.152;2023-12-20T04:55:16;2.73;;;2.53;;
14768;SDS011;7476;49.404;11.152;2023-12-20T04:57:44;4.10;;;2.50;;
14768;SDS011;7476;49.404;11.152;2023-12-20T05:00:11;2.93;;;2.60;;
14768;SDS011;7476;49.404;11.152;2023-12-20T05:02:40;2.80;;;2.60;;
14768;SDS011;7476;49.404;11.152;2023-12-20T05:05:07;2.60;;;2.40;;
14768;SDS011;7476;49.404;11.152;2023-12-20T05:07:34;2.50;;;2.30;;
14768;SDS011;7476;49.404;11.152;2023-12-20T05:10:00;2.67;;;2.47;;
14768;SDS011;7476;49.404;11.152;2023-12-20T05:12:29;2.63;;;2.43;;
14768;SDS011;7476;49.404;11.152;2023-12-20T05:14:57;2.40;;;2.20;;
14768;SDS011;7476;49.404;11.152;2023-12-20T05:17:24;2.50;;;2.30;;
14768;SDS011;7476;49.404;11.152;2023-12-20T05:19:51;3.33;;;2.30;;
14768;SDS011;7476;49.404;11.152;2023-12-20T05:22:18;3.07;;;2.20;;
14768;SDS011;7476;49.404;11.152;2023-12-20T05:24:45;2.30;;;2.10;;
14768;SDS011;7476;49.404;11.152;2023-12-20T05:27:12;2.80;;;2.43;;
14768;SDS011;7476;49.404;11.152;2023-12-20T05:29:38;2.57;;;2.13;;
14768;SDS011;7476;49.404;11.152;2023-12-20T05:32:06;2.23;;;2.03;;
14768;SDS011;7476;49.404;11.152;2023-12-20T05:34:33;2.40;;;2.20;;
14768;SDS011;7476;49.404;11.152;2023-12-20T05:37:00;2.20;;;2.00;;
14768;SDS011;7476;49.404;11.152;2023-12-20T05:39:27;2.70;;;2.50;;
14768;SDS011;7476;49.404;11.152;2023-12-20T05:41:55;2.30;;;2.10;;
14768;SDS011;7476;49.404;11.152;2023-12-20T05:44:22;2.30;;;2.10;;
14768;SDS011;7476;49.404;11.152;2023-12-20T05:46:49;2.20;;;2.00;;
14768;SDS011;7476;49.404;11.152;2023-12-20T05:49:17;3.13;;;1.90;;
14768;SDS011;7476;49.404;11.152;2023-12-20T05:51:43;2.47;;;2.27;;
14768;SDS011;7476;49.404;11.152;2023-12-20T05:54:10;2.30;;;2.10;;
14768;SDS011;7476;49.404;11.152;2023-12-20T05:56:37;3.50;;;2.43;;
14768;SDS011;7476;49.404;11.152;2023-12-20T05:59:04;2.83;;;2.13;;
14768;SDS011;7476;49.404;11.152;2023-12-20T06:01:30;2.77;;;2.17;;
14768;SDS011;7476;49.404;11.152;2023-12-20T06:03:57;2.50;;;2.30;;
14768;SDS011;7476;49.404;11.152;2023-12-20T06:06:25;2.53;;;2.33;;
14768;SDS011;7476;49.404;11.152;2023-12-20T06:08:51;3.17;;;2.20;;
14768;SDS011;7476;49.404;11.152;2023-12-20T06:11:18;3.07;;;2.43;;
14768;SDS011;7476;49.404;11.152;2023-12-20T06:13:45;2.40;;;2.20;;
14768;SDS011;7476;49.404;11.152;2023-12-20T06:16:11;3.17;;;2.43;;
14768;SDS011;7476;49.404;11.152;2023-12-20T06:18:38;2.03;;;1.93;;
14768;SDS011;7476;49.404;11.152;2023-12-20T06:21:05;2.17;;;1.97;;
14768;SDS011;7476;49.404;11.152;2023-12-20T06:23:34;2.67;;;2.47;;
14768;SDS011;7476;49.404;11.152;2023-12-20T06:26:01;2.53;;;2.33;;
14768;SDS011;7476;49.404;11.152;2023-12-20T06:28:27;3.00;;;2.10;;
14768;SDS011;7476;49.404;11.152;2023-12-20T06:30:54;2.40;;;2.20;;
14768;SDS011;7476;49.404;11.152;2023-12-20T06:33:22;2.83;;;2.20;;
14768;SDS011;7476;49.404;11.152;2023-12-20T06:35:49;2.97;;;2.37;;
14768;SDS011;7476;49.404;11.152;2023-12-20T06:38:17;2.37;;;2.00;;
14768;SDS011;7476;49.404;11.152;2023-12-20T06:40:45;3.23;;;2.40;;
14768;SDS011;7476;49.404;11.152;2023-12-20T06:43:12;2.97;;;2.67;;
14768;SDS011;7476;49.404;11.152;2023-12-20T06:45:39;2.73;;;2.53;;
14768;SDS011;7476;49.404;11.152;2023-12-20T06:48:06;3.40;;;2.60;;
14768;SDS011;7476;49.404;11.152;2023-12-20T06:50:32;2.70;;;2.50;;
14768;SDS011;7476;49.404;11.152;2023-12-20T06:52:59;2.30;;;2.13;;
14768;SDS011;7476;49.404;11.152;2023-12-20T06:55:31;2.57;;;2.37;;
14768;SDS011;7476;49.404;11.152;2023-12-20T06:57:59;2.90;;;2.70;;
14768;SDS011;7476;49.404;11.152;2023-12-20T07:00:26;4.40;;;2.90;;
14768;SDS011;7476;49.404;11.152;2023-12-20T07:02:53;4.23;;;2.60;;
14768;SDS011;7476;49.404;11.152;2023-12-20T07:05:20;2.80;;;2.60;;
14768;SDS011;7476;49.404;11.152;2023-12-20T07:07:47;3.20;;;3.00;;
14768;SDS011;7476;49.404;11.152;2023-12-20T07:10:14;2.93;;;2.73;;
14768;SDS011;7476;49.404;11.152;2023-12-20T07:12:40;3.33;;;2.70;;
14768;SDS011;7476;49.404;11.152;2023-12-20T07:15:09;3.60;;;3.30;;
14768;SDS011;7476;49.404;11.152;2023-12-20T07:17:36;4.30;;;3.50;;
14768;SDS011;7476;49.404;11.152;2023-12-20T07:20:03;4.70;;;3.53;;
14768;SDS011;7476;49.404;11.152;2023-12-20T07:22:31;4.57;;;3.80;;
14768;SDS011;7476;49.404;11.152;2023-12-20T07:24:59;3.73;;;3.43;;
14768;SDS011;7476;49.404;11.152;2023-12-20T07:27:26;3.80;;;3.50;;
14768;SDS011;7476;49.404;11.152;2023-12-20T07:29:52;4.60;;;4.20;;
14768;SDS011;7476;49.404;11.152;2023-12-20T07:32:20;5.03;;;4.13;;
14768;SDS011;7476;49.404;11.152;2023-12-20T07:34:47;4.10;;;3.80;;
14768;SDS011;7476;49.404;11.152;2023-12-20T07:37:14;4.77;;;4.10;;
14768;SDS011;7476;49.404;11.152;2023-12-20T07:39:40;4.70;;;4.30;;
14768;SDS011;7476;49.404;11.152;2023-12-20T07:42:07;5.37;;;4.50;;
14768;SDS011;7476;49.404;11.152;2023-12-20T07:44:34;5.60;;;4.20;;
14768;SDS011;7476;49.404;11.152;2023-12-20T07:47:01;6.37;;;4.47;;
14768;SDS011;7476;49.404;11.152;2023-12-20T07:49:29;4.77;;;4.37;;
14768;SDS011;7476;49.404;11.152;2023-12-20T07:51:56;5.27;;;4.77;;
14768;SDS011;7476;49.404;11.152;2023-12-20T07:54:23;5.20;;;4.70;;
14768;SDS011;7476;49.404;11.152;2023-12-20T07:56:50;5.13;;;4.60;;
14768;SDS011;7476;49.404;11.152;2023-12-20T07:59:16;5.57;;;4.83;;
14768;SDS011;7476;49.404;11.152;2023-12-20T08:01:43;5.30;;;4.47;;
14768;SDS011;7476;49.404;11.152;2023-12-20T08:04:10;5.30;;;4.80;;
14768;SDS011;7476;49.404;11.152;2023-12-20T08:06:38;5.47;;;4.97;;
14768;SDS011;7476;49.404;11.152;2023-12-20T08:09:04;5.30;;;4.80;;
14768;SDS011;7476;49.404;11.152;2023-12-20T08:11:31;5.07;;;4.63;;
14768;SDS011;7476;49.404;11.152;2023-12-20T08:13:58;5.20;;;4.70;;
14768;SDS011;7476;49.404;11.152;2023-12-20T08:16:25;5.80;;;5.30;;
14768;SDS011;7476;49.404;11.152;2023-12-20T08:18:51;5.80;;;5.20;;
14768;SDS011;7476;49.404;11.152;2023-12-20T08:21:18;5.30;;;4.70;;
14768;SDS011;7476;49.404;11.152;2023-12-20T08:23:48;6.03;;;5.50;;
14768;SDS011;7476;49.404;11.152;2023-12-20T08:26:18;5.33;;;4.83;;
14768;SDS011;7476;49.404;11.152;2023-12-20T08:28:46;5.43;;;4.93;;
14768;SDS011;7476;49.404;11.152;2023-12-20T08:31:13;5.73;;;4.93;;
14768;SDS011;7476;49.404;11.152;2023-12-20T08:33:40;5.57;;;4.97;;
14768;SDS011;7476;49.404;11.152;2023-12-20T08:36:07;6.33;;;5.20;;
14768;SDS011;7476;49.404;11.152;2023-12-20T08:38:34;6.10;;;5.50;;
14768;SDS011;7476;49.404;11.152;2023-12-20T08:41:02;5.50;;;5.00;;
14768;SDS011;7476;49.404;11.152;2023-12-20T08:43:31;6.20;;;5.57;;
14768;SDS011;7476;49.404;11.152;2023-12-20T08:45:56;5.20;;;4.70;;
14768;SDS011;7476;49.404;11.152;2023-12-20T08:48:23;5.40;;;4.90;;
14768;SDS011;7476;49.404;11.152;2023-12-20T08:50:50;6.00;;;5.07;;
14768;SDS011;7476;49.404;11.152;2023-12-20T08:53:17;5.70;;;4.83;;
14768;SDS011;7476;49.404;11.152;2023-12-20T08:55:44;4.83;;;4.33;;
14768;SDS011;7476;49.404;11.152;2023-12-20T08:58:12;5.00;;;4.50;;
14768;SDS011;7476;49.404;11.152;2023-12-20T09:00:39;4.57;;;4.17;;
14768;SDS011;7476;49.404;11.152;2023-12-20T09:03:05;4.23;;;3.83;;
14768;SDS011;7476;49.404;11.152;2023-12-20T09:05:32;6.10;;;3.90;;
14768;SDS011;7476;49.404;11.152;2023-12-20T09:07:59;4.53;;;4.13;;
14768;SDS011;7476;49.404;11.152;2023-12-20T09:10:25;5.47;;;4.20;;
14768;SDS011;7476;49.404;11.152;2023-12-20T09:12:52;5.37;;;3.90;;
14768;SDS011;7476;49.404;11.152;2023-12-20T09:15:22;4.37;;;3.97;;
14768;SDS011;7476;49.404;11.152;2023-12-20T09:17:49;6.30;;;3.90;;
14768;SDS011;7476;49.404;11.152;2023-12-20T09:20:16;4.00;;;3.63;;
14768;SDS011;7476;49.404;11.152;2023-12-20T09:22:42;4.23;;;3.50;;
14768;SDS011;7476;49.404;11.152;2023-12-20T09:25:09;3.50;;;3.03;;
14768;SDS011;7476;49.404;11.152;2023-12-20T09:27:37;4.80;;;3.33;;
14768;SDS011;7476;49.404;11.152;2023-12-20T09:30:04;4.00;;;3.70;;
14768;SDS011;7476;49.404;11.152;2023-12-20T09:32:33;4.37;;;3.20;;
14768;SDS011;7476;49.404;11.152;2023-12-20T09:35:00;5.07;;;3.57;;
14768;SDS011;7476;49.404;11.152;2023-12-20T09:37:27;4.13;;;3.73;;
14768;SDS011;7476;49.404;11.152;2023-12-20T09:39:54;7.40;;;3.77;;
14768;SDS011;7476;49.404;11.152;2023-12-20T09:42:21;3.50;;;3.20;;
14768;SDS011;7476;49.404;11.152;2023-12-20T09:44:55;4.57;;;3.50;;
14768;SDS011;7476;49.404;11.152;2023-12-20T09:47:26;4.63;;;3.87;;
14768;SDS011;7476;49.404;11.152;2023-12-20T09:49:54;4.00;;;2.83;;
14768;SDS011;7476;49.404;11.152;2023-12-20T09:52:22;3.47;;;2.77;;
14768;SDS011;7476;49.404;11.152;2023-12-20T09:54:50;4.97;;;2.70;;
14768;SDS011;7476;49.404;11.152;2023-12-20T09:57:20;4.10;;;2.40;;
14768;SDS011;7476;49.404;11.152;2023-12-20T09:59:46;4.87;;;2.50;;
14768;SDS011;7476;49.404;11.152;2023-12-20T10:02:13;2.93;;;2.20;;
14768;SDS011;7476;49.404;11.152;2023-12-20T10:04:41;7.70;;;2.50;;
14768;SDS011;7476;49.404;11.152;2023-12-20T10:07:14;4.33;;;2.30;;
14768;SDS011;7476;49.404;11.152;2023-12-20T10:09:41;3.00;;;1.93;;
14768;SDS011;7476;49.404;11.152;2023-12-20T10:12:08;4.83;;;2.10;;
14768;SDS011;7476;49.404;11.152;2023-12-20T10:14:35;2.93;;;1.97;;
14768;SDS011;7476;49.404;11.152;2023-12-20T10:17:02;3.93;;;1.90;;
14768;SDS011;7476;49.404;11.152;2023-12-20T10:19:30;4.10;;;2.20;;
14768;SDS011;7476;49.404;11.152;2023-12-20T10:21:57;5.33;;;2.57;;
14768;SDS011;7476;49.404;11.152;2023-12-20T10:24:27;3.87;;;2.00;;
14768;SDS011;7476;49.404;11.152;2023-12-20T10:27:01;4.27;;;2.00;;
14768;SDS011;7476;49.404;11.152;2023-12-20T10:29:31;3.07;;;2.03;;
14768;SDS011;7476;49.404;11.152;2023-12-20T10:31:58;3.47;;;2.00;;
14768;SDS011;7476;49.404;11.152;2023-12-20T10:34:25;3.77;;;2.20;;
14768;SDS011;7476;49.404;11.152;2023-12-20T10:36:51;5.73;;;2.10;;
14768;SDS011;7476;49.404;11.152;2023-12-20T10:39:19;5.70;;;2.10;;
14768;SDS011;7476;49.404;11.152;2023-12-20T10:41:48;5.13;;;2.13;;
14768;SDS011;7476;49.404;11.152;2023-12-20T10:44:15;3.67;;;2.00;;
14768;SDS011;7476;49.404;11.152;2023-12-20T10:46:42;2.23;;;1.90;;
14768;SDS011;7476;49.404;11.152;2023-12-20T10:49:16;2.10;;;1.90;;
14768;SDS011;7476;49.404;11.152;2023-12-20T10:51:45;2.97;;;2.20;;
14768;SDS011;7476;49.404;11.152;2023-12-20T10:54:13;4.80;;;2.27;;
14768;SDS011;7476;49.404;11.152;2023-12-20T10:56:40;3.70;;;1.90;;
14768;SDS011;7476;49.404;11.152;2023-12-20T10:59:09;4.87;;;2.10;;
14768;SDS011;7476;49.404;11.152;2023-12-20T11:01:37;4.53;;;2.07;;
14768;SDS011;7476;49.404;11.152;2023-12-20T11:04:06;3.70;;;2.10;;
14768;SDS011;7476;49.404;11.152;2023-12-20T11:06:40;3.43;;;2.17;;
14768;SDS011;7476;49.404;11.152;2023-12-20T11:09:13;3.70;;;2.03;;
14768;SDS011;7476;49.404;11.152;2023-12-20T11:11:52;5.00;;;2.03;;
14768;SDS011;7476;49.404;11.152;2023-12-20T11:14:27;5.23;;;2.40;;
14768;SDS011;7476;49.404;11.152;2023-12-20T11:17:05;4.53;;;2.20;;
14768;SDS011;7476;49.404;11.152;2023-12-20T11:19:32;4.97;;;1.97;;
14768;SDS011;7476;49.404;11.152;2023-12-20T11:22:03;3.47;;;1.80;;
14768;SDS011;7476;49.404;11.152;2023-12-20T11:24:30;3.10;;;1.77;;
14768;SDS011;7476;49.404;11.152;2023-12-20T11:26:59;5.20;;;2.00;;
14768;SDS011;7476;49.404;11.152;2023-12-20T11:29:30;3.63;;;2.00;;
14768;SDS011;7476;49.404;11.152;2023-12-20T11:31:59;3.67;;;2.03;;
14768;SDS011;7476;49.404;11.152;2023-12-20T11:34:26;3.53;;;1.80;;
14768;SDS011;7476;49.404;11.152;2023-12-20T11:36:57;2.93;;;1.90;;
14768;SDS011;7476;49.404;11.152;2023-12-20T11:39:25;5.37;;;2.30;;
14768;SDS011;7476;49.404;11.152;2023-12-20T11:41:53;4.77;;;2.10;;
14768;SDS011;7476;49.404;11.152;2023-12-20T11:44:21;5.03;;;3.00;;
14768;SDS011;7476;49.404;11.152;2023-12-20T11:46:49;6.13;;;2.20;;
14768;SDS011;7476;49.404;11.152;2023-12-20T11:49:16;3.90;;;2.10;;
14768;SDS011;7476;49.404;11.152;2023-12-20T11:51:42;4.67;;;2.20;;
14768;SDS011;7476;49.404;11.152;2023-12-20T11:54:10;2.97;;;2.10;;
14768;SDS011;7476;49.404;11.152;2023-12-20T11:56:37;3.90;;;2.30;;
14768;SDS011;7476;49.404;11.152;2023-12-20T11:59:04;4.60;;;2.37;;
14768;SDS011;7476;49.404;11.152;2023-12-20T12:01:31;7.37;;;3.00;;
14768;SDS011;7476;49.404;11.152;2023-12-20T12:04:08;4.33;;;2.40;;
14768;SDS011;7476;49.404;11.152;2023-12-20T12:06:35;6.53;;;3.00;;
14768;SDS011;7476;49.404;11.152;2023-12-20T12:09:02;4.53;;;2.77;;
14768;SDS011;7476;49.404;11.152;2023-12-20T12:11:29;5.03;;;2.87;;
14768;SDS011;7476;49.404;11.152;2023-12-20T12:13:56;5.37;;;2.67;;
14768;SDS011;7476;49.404;11.152;2023-12-20T12:16:23;5.20;;;2.60;;
14768;SDS011;7476;49.404;11.152;2023-12-20T12:18:56;4.87;;;2.47;;
14768;SDS011;7476;49.404;11.152;2023-12-20T12:21:24;3.77;;;2.70;;
14768;SDS011;7476;49.404;11.152;2023-12-20T12:23:51;4.63;;;2.50;;
14768;SDS011;7476;49.404;11.152;2023-12-20T12:26:18;4.30;;;2.47;;
14768;SDS011;7476;49.404;11.152;2023-12-20T12:28:45;7.47;;;2.60;;
14768;SDS011;7476;49.404;11.152;2023-12-20T12:31:13;8.97;;;2.97;;
14768;SDS011;7476;49.404;11.152;2023-12-20T12:33:40;5.10;;;2.47;;
14768;SDS011;7476;49.404;11.152;2023-12-20T12:36:08;3.80;;;2.60;;
14768;SDS011;7476;49.404;11.152;2023-12-20T12:38:37;4.63;;;2.23;;
14768;SDS011;7476;49.404;11.152;2023-12-20T12:41:04;3.20;;;2.10;;
14768;SDS011;7476;49.404;11.152;2023-12-20T12:43:32;4.90;;;2.30;;
14768;SDS011;7476;49.404;11.152;2023-12-20T12:45:59;3.03;;;2.20;;
14768;SDS011;7476;49.404;11.152;2023-12-20T12:48:26;2.97;;;2.20;;
14768;SDS011;7476;49.404;11.152;2023-12-20T12:50:53;3.20;;;2.53;;
14768;SDS011;7476;49.404;11.152;2023-12-20T12:53:24;3.77;;;2.43;;
14768;SDS011;7476;49.404;11.152;2023-12-20T12:55:52;5.17;;;3.00;;
14768;SDS011;7476;49.404;11.152;2023-12-20T12:58:19;2.43;;;2.10;;
14768;SDS011;7476;49.404;11.152;2023-12-20T13:00:47;6.70;;;2.50;;
14768;SDS011;7476;49.404;11.152;2023-12-20T13:03:14;4.73;;;2.30;;
14768;SDS011;7476;49.404;11.152;2023-12-20T13:05:40;4.90;;;2.80;;
14768;SDS011;7476;49.404;11.152;2023-12-20T13:08:08;6.77;;;2.30;;
14768;SDS011;7476;49.404;11.152;2023-12-20T13:10:36;3.13;;;2.50;;
14768;SDS011;7476;49.404;11.152;2023-12-20T13:13:05;5.07;;;2.40;;
14768;SDS011;7476;49.404;11.152;2023-12-20T13:15:31;3.50;;;2.20;;
14768;SDS011;7476;49.404;11.152;2023-12-20T13:17:58;3.93;;;2.57;;
14768;SDS011;7476;49.404;11.152;2023-12-20T13:20:25;5.33;;;2.63;;
14768;SDS011;7476;49.404;11.152;2023-12-20T13:22:51;4.23;;;2.20;;
14768;SDS011;7476;49.404;11.152;2023-12-20T13:25:18;5.17;;;2.60;;
14768;SDS011;7476;49.404;11.152;2023-12-20T13:27:45;6.57;;;2.60;;
14768;SDS011;7476;49.404;11.152;2023-12-20T13:30:15;3.73;;;2.30;;
14768;SDS011;7476;49.404;11.152;2023-12-20T13:32:41;4.53;;;2.50;;
14768;SDS011;7476;49.404;11.152;2023-12-20T13:35:09;6.07;;;2.90;;
14768;SDS011;7476;49.404;11.152;2023-12-20T13:37:35;4.50;;;2.40;;
14768;SDS011;7476;49.404;11.152;2023-12-20T13:40:02;4.40;;;2.40;;
14768;SDS011;7476;49.404;11.152;2023-12-20T13:42:31;3.57;;;2.40;;
14768;SDS011;7476;49.404;11.152;2023-12-20T13:44:57;3.87;;;2.50;;
14768;SDS011;7476;49.404;11.152;2023-12-20T13:47:25;4.30;;;2.47;;
14768;SDS011;7476;49.404;11.152;2023-12-20T13:49:52;3.17;;;2.07;;
14768;SDS011;7476;49.404;11.152;2023-12-20T13:52:19;6.37;;;2.50;;
14768;SDS011;7476;49.404;11.152;2023-12-20T13:54:45;4.57;;;2.77;;
14768;SDS011;7476;49.404;11.152;2023-12-20T13:57:12;3.23;;;2.17;;
14768;SDS011;7476;49.404;11.152;2023-12-20T13:59:39;5.17;;;2.50;;
14768;SDS011;7476;49.404;11.152;2023-12-20T14:02:06;4.80;;;2.30;;
14768;SDS011;7476;49.404;11.152;2023-12-20T14:04:34;3.30;;;2.40;;
14768;SDS011;7476;49.404;11.152;2023-12-20T14:07:00;6.33;;;2.40;;
14768;SDS011;7476;49.404;11.152;2023-12-20T14:09:28;5.83;;;2.67;;
14768;SDS011;7476;49.404;11.152;2023-12-20T14:11:54;5.00;;;2.60;;
14768;SDS011;7476;49.404;11.152;2023-12-20T14:14:21;3.40;;;2.20;;
14768;SDS011;7476;49.404;11.152;2023-12-20T14:16:48;3.37;;;2.40;;
14768;SDS011;7476;49.404;11.152;2023-12-20T14:19:15;4.43;;;2.67;;
14768;SDS011;7476;49.404;11.152;2023-12-20T14:21:43;3.27;;;2.37;;
14768;SDS011;7476;49.404;11.152;2023-12-20T14:24:10;4.13;;;2.43;;
14768;SDS011;7476;49.404;11.152;2023-12-20T14:26:39;3.23;;;2.30;;
14768;SDS011;7476;49.404;11.152;2023-12-20T14:29:06;4.20;;;2.37;;
14768;SDS011;7476;49.404;11.152;2023-12-20T14:31:34;3.70;;;2.20;;
14768;SDS011;7476;49.404;11.152;2023-12-20T14:34:02;5.30;;;2.50;;
14768;SDS011;7476;49.404;11.152;2023-12-20T14:36:29;5.27;;;2.27;;
14768;SDS011;7476;49.404;11.152;2023-12-20T14:38:57;3.17;;;2.40;;
14768;SDS011;7476;49.404;11.152;2023-12-20T14:41:24;5.90;;;2.53;;
14768;SDS011;7476;49.404;11.152;2023-12-20T14:43:51;3.27;;;2.70;;
14768;SDS011;7476;49.404;11.152;2023-12-20T14:46:18;4.50;;;2.70;;
14768;SDS011;7476;49.404;11.152;2023-12-20T14:48:45;3.83;;;2.33;;